Time;durP1;ratioP1;P1;durP2;ratioP2;P2;SDS_P1;SDS_P2;PMS_P1;PMS_P2;Temp;Humidity;BMP_temperature;BMP_pressure;BME280_temperature;BME280_humidity;BME280_pressure;Samples;Min_cycle;Max_cycle;Signal;HPM_P1;HPM_P2
2022/07/09 00:00:43;;;;;;;1.85;1.45;;;;;;;;;;5036898;28;20270;-52
2022/07/09 00:03:09;;;;;;;4.40;1.80;;;;;;;;;;5042349;28;20247;-52
2022/07/09 00:05:36;;;;;;;4.70;1.75;;;;;;;;;;5035620;28;20319;-52
2022/07/09 00:08:03;;;;;;;1.75;1.45;;;;;;;;;;5024977;28;20224;-51
2022/07/09 00:10:30;;;;;;;4.55;2.28;;;;;;;;;;5027715;28;20229;-51
2022/07/09 00:12:56;;;;;;;6.20;2.00;;;;;;;;;;5021809;28;20233;-51
2022/07/09 00:15:24;;;;;;;2.92;1.80;;;;;;;;;;5022022;28;20737;-51
2022/07/09 00:17:50;;;;;;;3.97;2.08;;;;;;;;;;5023100;28;20243;-50
2022/07/09 00:20:17;;;;;;;3.17;1.92;;;;;;;;;;5025507;28;20240;-53
2022/07/09 00:22:43;;;;;;;3.67;1.73;;;;;;;;;;5021143;28;20260;-51
2022/07/09 00:25:10;;;;;;;4.40;2.53;;;;;;;;;;5025036;28;20236;-51
2022/07/09 00:27:36;;;;;;;4.68;1.60;;;;;;;;;;5011490;28;20243;-52
2022/07/09 00:30:03;;;;;;;2.65;1.75;;;;;;;;;;5027062;28;20256;-51
2022/07/09 00:32:31;;;;;;;2.22;1.80;;;;;;;;;;5019133;28;20332;-50
2022/07/09 00:34:57;;;;;;;2.78;2.00;;;;;;;;;;5031038;28;20334;-53
2022/07/09 00:37:23;;;;;;;4.28;2.53;;;;;;;;;;5020835;28;20233;-51
2022/07/09 00:39:50;;;;;;;3.22;1.65;;;;;;;;;;5027385;28;20234;-52
2022/07/09 00:42:16;;;;;;;2.35;1.83;;;;;;;;;;5023648;28;20784;-52
2022/07/09 00:44:42;;;;;;;4.47;1.90;;;;;;;;;;5014301;28;20240;-51
2022/07/09 00:47:09;;;;;;;2.92;1.92;;;;;;;;;;5021224;28;20236;-50
2022/07/09 00:49:38;;;;;;;2.50;2.30;;;;;;;;;;5022854;28;20229;-51
2022/07/09 00:52:05;;;;;;;5.00;2.10;;;;;;;;;;5024328;28;20349;-51
2022/07/09 00:54:32;;;;;;;2.65;1.95;;;;;;;;;;5025381;28;20243;-51
2022/07/09 00:56:59;;;;;;;3.75;2.30;;;;;;;;;;5024687;28;20237;-51
2022/07/09 00:59:25;;;;;;;5.93;2.28;;;;;;;;;;5023993;28;20239;-52
2022/07/09 01:01:51;;;;;;;4.25;2.55;;;;;;;;;;5007832;28;20765;-51
2022/07/09 01:04:18;;;;;;;4.72;2.13;;;;;;;;;;5012705;28;20232;-52
2022/07/09 01:06:46;;;;;;;5.20;2.10;;;;;;;;;;5029828;28;20236;-52
2022/07/09 01:09:13;;;;;;;4.07;2.88;;;;;;;;;;5041708;28;20315;-52
2022/07/09 01:11:40;;;;;;;4.38;2.00;;;;;;;;;;5047953;28;20246;-51
2022/07/09 01:14:08;;;;;;;2.28;2.03;;;;;;;;;;5043894;28;20231;-53
2022/07/09 01:16:35;;;;;;;5.55;2.55;;;;;;;;;;5039934;28;20239;-51
2022/07/09 01:19:01;;;;;;;6.93;2.22;;;;;;;;;;5032354;28;20625;-52
2022/07/09 01:21:29;;;;;;;3.03;2.25;;;;;;;;;;5040665;28;20232;-51
2022/07/09 01:23:56;;;;;;;7.97;2.38;;;;;;;;;;5039670;28;20244;-52
2022/07/09 01:26:22;;;;;;;9.35;2.38;;;;;;;;;;5042695;28;20627;-52
2022/07/09 01:28:49;;;;;;;2.58;2.15;;;;;;;;;;5023776;28;20254;-51
2022/07/09 01:31:15;;;;;;;3.78;2.42;;;;;;;;;;5028210;28;20229;-52
2022/07/09 01:33:42;;;;;;;5.47;2.55;;;;;;;;;;5023008;28;20237;-51
2022/07/09 01:36:08;;;;;;;4.80;3.03;;;;;;;;;;5012541;28;20232;-51
2022/07/09 01:38:36;;;;;;;4.40;2.22;;;;;;;;;;5020619;28;20228;-50
2022/07/09 01:41:03;;;;;;;4.22;2.22;;;;;;;;;;5028360;28;20229;-52
2022/07/09 01:43:30;;;;;;;2.60;2.40;;;;;;;;;;5025990;28;20232;-52
2022/07/09 01:45:57;;;;;;;3.97;2.75;;;;;;;;;;5028507;28;20232;-51
2022/07/09 01:48:23;;;;;;;3.88;2.47;;;;;;;;;;5020880;28;20232;-52
2022/07/09 01:50:50;;;;;;;2.83;2.20;;;;;;;;;;5028684;28;20232;-53
2022/07/09 01:53:16;;;;;;;7.28;2.38;;;;;;;;;;5048310;28;20239;-52
2022/07/09 01:55:44;;;;;;;3.78;2.30;;;;;;;;;;5043922;28;20240;-52
2022/07/09 01:58:10;;;;;;;3.38;2.28;;;;;;;;;;5039427;28;20249;-52
2022/07/09 02:00:36;;;;;;;3.25;2.47;;;;;;;;;;5034792;28;20236;-52
2022/07/09 02:03:03;;;;;;;7.60;2.60;;;;;;;;;;5047998;28;20238;-53
2022/07/09 02:05:30;;;;;;;5.10;2.40;;;;;;;;;;5044088;28;20227;-52
2022/07/09 02:07:56;;;;;;;3.83;2.08;;;;;;;;;;5041586;28;20236;-52
2022/07/09 02:10:22;;;;;;;6.55;2.85;;;;;;;;;;5036612;28;20251;-52
2022/07/09 02:12:50;;;;;;;5.25;2.97;;;;;;;;;;5036348;28;20236;-53
2022/07/09 02:15:16;;;;;;;4.90;2.30;;;;;;;;;;5042328;28;20227;-52
2022/07/09 02:17:43;;;;;;;7.78;2.90;;;;;;;;;;5035624;28;20229;-52
2022/07/09 02:20:09;;;;;;;8.95;2.47;;;;;;;;;;5045139;28;20239;-52
2022/07/09 02:22:36;;;;;;;5.50;3.53;;;;;;;;;;5038142;28;20228;-52
2022/07/09 02:25:02;;;;;;;4.20;2.28;;;;;;;;;;5027371;28;20236;-52
2022/07/09 02:27:28;;;;;;;11.38;3.97;;;;;;;;;;5029289;28;20228;-52
2022/07/09 02:29:56;;;;;;;5.68;2.70;;;;;;;;;;5040394;28;20234;-51
2022/07/09 02:32:22;;;;;;;4.38;3.15;;;;;;;;;;5042626;28;20315;-50
2022/07/09 02:34:49;;;;;;;4.55;2.85;;;;;;;;;;5043725;28;20240;-52
2022/07/09 02:37:15;;;;;;;3.92;2.88;;;;;;;;;;5041291;28;20228;-52
2022/07/09 02:39:41;;;;;;;7.50;2.90;;;;;;;;;;5042776;28;20240;-52
2022/07/09 02:42:08;;;;;;;6.35;3.08;;;;;;;;;;5026420;28;20909;-52
2022/07/09 02:44:34;;;;;;;4.90;3.33;;;;;;;;;;5026021;28;20236;-52
2022/07/09 02:47:02;;;;;;;6.00;3.65;;;;;;;;;;5022764;28;20240;-52
2022/07/09 02:49:29;;;;;;;6.72;3.28;;;;;;;;;;5023111;28;20228;-52
2022/07/09 02:51:57;;;;;;;5.07;2.92;;;;;;;;;;5025060;28;20239;-52
2022/07/09 02:54:23;;;;;;;4.53;3.05;;;;;;;;;;5049237;28;20323;-52
2022/07/09 02:56:50;;;;;;;6.78;2.72;;;;;;;;;;5040655;28;20231;-51
2022/07/09 02:59:16;;;;;;;3.88;3.42;;;;;;;;;;5044218;28;20231;-51
2022/07/09 03:01:42;;;;;;;4.53;2.80;;;;;;;;;;5045125;28;20231;-51
2022/07/09 03:04:10;;;;;;;11.98;3.58;;;;;;;;;;5042582;28;20243;-51
2022/07/09 03:06:37;;;;;;;5.25;3.35;;;;;;;;;;5035825;28;20228;-52
2022/07/09 03:09:03;;;;;;;5.03;2.97;;;;;;;;;;5024287;28;20223;-51
2022/07/09 03:11:29;;;;;;;4.85;3.00;;;;;;;;;;5035968;28;20236;-51
2022/07/09 03:13:56;;;;;;;7.20;4.00;;;;;;;;;;5042184;28;20240;-51
2022/07/09 03:16:22;;;;;;;3.47;3.17;;;;;;;;;;5041832;28;20290;-51
2022/07/09 03:18:49;;;;;;;4.00;2.78;;;;;;;;;;5043878;28;20240;-52
2022/07/09 03:21:17;;;;;;;5.75;2.75;;;;;;;;;;5044654;28;20235;-51
2022/07/09 03:23:43;;;;;;;4.90;3.00;;;;;;;;;;5041227;28;20318;-50
2022/07/09 03:26:09;;;;;;;4.82;3.30;;;;;;;;;;5028084;28;20236;-52
2022/07/09 03:28:36;;;;;;;6.00;3.80;;;;;;;;;;5029298;28;20234;-53
2022/07/09 03:31:02;;;;;;;3.35;2.63;;;;;;;;;;5044666;28;20236;-52
2022/07/09 03:33:28;;;;;;;5.03;2.83;;;;;;;;;;5039354;28;20228;-52
2022/07/09 03:35:55;;;;;;;4.57;2.88;;;;;;;;;;5037680;28;20239;-52
2022/07/09 03:38:23;;;;;;;8.15;3.40;;;;;;;;;;5023185;28;20687;-51
2022/07/09 03:40:49;;;;;;;3.10;2.80;;;;;;;;;;5022316;28;20235;-52
2022/07/09 03:43:16;;;;;;;3.10;2.80;;;;;;;;;;5031819;28;20720;-50
2022/07/09 03:45:42;;;;;;;4.35;3.20;;;;;;;;;;5024081;28;20239;-51
2022/07/09 03:48:08;;;;;;;4.63;3.33;;;;;;;;;;5023811;28;20610;-50
2022/07/09 03:50:34;;;;;;;5.25;3.00;;;;;;;;;;5024363;28;20237;-52
2022/07/09 03:53:01;;;;;;;6.78;3.47;;;;;;;;;;5024392;28;20232;-51
2022/07/09 03:55:29;;;;;;;12.02;3.30;;;;;;;;;;5015960;28;20233;-53
2022/07/09 03:57:55;;;;;;;7.00;3.40;;;;;;;;;;5021632;28;20232;-51
2022/07/09 04:00:22;;;;;;;5.40;2.80;;;;;;;;;;5023035;28;20721;-50
2022/07/09 04:02:48;;;;;;;5.53;3.40;;;;;;;;;;5040078;28;20246;-51
2022/07/09 04:05:15;;;;;;;4.25;2.95;;;;;;;;;;5039801;28;20235;-51
2022/07/09 04:07:41;;;;;;;4.05;3.10;;;;;;;;;;5030435;28;20243;-52
2022/07/09 04:10:08;;;;;;;4.38;3.42;;;;;;;;;;5033903;28;20316;-51
2022/07/09 04:12:36;;;;;;;2.85;2.50;;;;;;;;;;5043221;28;20228;-54
2022/07/09 04:15:02;;;;;;;5.18;3.50;;;;;;;;;;5041156;28;20267;-52
2022/07/09 04:17:28;;;;;;;5.30;2.63;;;;;;;;;;5035121;28;20236;-52
2022/07/09 04:19:55;;;;;;;2.97;2.67;;;;;;;;;;5021985;28;20235;-52
2022/07/09 04:22:21;;;;;;;3.53;2.88;;;;;;;;;;5030636;28;20765;-52
2022/07/09 04:24:47;;;;;;;2.47;2.05;;;;;;;;;;5042514;28;20310;-52
2022/07/09 04:27:14;;;;;;;4.22;3.20;;;;;;;;;;5041069;28;20740;-50
2022/07/09 04:29:41;;;;;;;4.43;3.20;;;;;;;;;;5042059;28;20619;-52
2022/07/09 04:32:08;;;;;;;5.35;2.80;;;;;;;;;;5024509;28;20231;-51
2022/07/09 04:34:34;;;;;;;3.40;2.47;;;;;;;;;;5023420;28;20236;-51
2022/07/09 04:37:00;;;;;;;4.43;2.35;;;;;;;;;;5024653;28;20231;-52
2022/07/09 04:39:27;;;;;;;2.97;2.33;;;;;;;;;;5024747;28;20229;-50
2022/07/09 04:41:53;;;;;;;3.72;3.03;;;;;;;;;;5023165;28;20229;-52
2022/07/09 04:44:19;;;;;;;3.38;2.55;;;;;;;;;;5022875;28;20240;-52
2022/07/09 04:46:47;;;;;;;7.00;2.63;;;;;;;;;;5030104;28;20777;-52
2022/07/09 04:49:14;;;;;;;2.70;2.00;;;;;;;;;;5035015;28;20233;-52
2022/07/09 04:51:40;;;;;;;3.50;2.10;;;;;;;;;;5037350;28;20232;-50
2022/07/09 04:54:06;;;;;;;3.47;2.47;;;;;;;;;;5037756;28;20255;-53
2022/07/09 04:56:33;;;;;;;4.35;2.38;;;;;;;;;;5036856;28;20272;-52
2022/07/09 04:59:02;;;;;;;8.63;2.58;;;;;;;;;;5036447;28;20727;-51
2022/07/09 05:01:29;;;;;;;4.55;2.58;;;;;;;;;;5035103;28;20243;-52
2022/07/09 05:03:57;;;;;;;4.03;3.05;;;;;;;;;;5037121;28;20328;-52
2022/07/09 05:06:23;;;;;;;4.18;2.22;;;;;;;;;;5038418;28;20242;-54
2022/07/09 05:08:50;;;;;;;3.85;2.90;;;;;;;;;;5036742;28;20228;-52
2022/07/09 05:11:16;;;;;;;4.13;2.65;;;;;;;;;;5041164;28;20259;-51
2022/07/09 05:13:42;;;;;;;4.40;2.63;;;;;;;;;;5043643;28;20244;-52
2022/07/09 05:16:09;;;;;;;6.35;3.13;;;;;;;;;;5043033;28;20220;-51
2022/07/09 05:18:35;;;;;;;2.67;2.47;;;;;;;;;;5032596;28;20489;-51
2022/07/09 05:21:03;;;;;;;4.15;3.22;;;;;;;;;;5035506;28;20231;-52
2022/07/09 05:23:30;;;;;;;5.88;2.72;;;;;;;;;;5042231;28;20240;-51
2022/07/09 05:25:56;;;;;;;3.08;2.13;;;;;;;;;;5032865;28;20232;-54
2022/07/09 05:28:23;;;;;;;3.20;2.90;;;;;;;;;;5025508;28;20612;-50
2022/07/09 05:30:49;;;;;;;3.20;2.58;;;;;;;;;;5037579;28;20239;-51
2022/07/09 05:33:15;;;;;;;5.03;3.20;;;;;;;;;;5044214;28;20729;-51
2022/07/09 05:35:42;;;;;;;8.30;3.05;;;;;;;;;;5031967;28;20236;-52
2022/07/09 05:38:09;;;;;;;4.32;2.92;;;;;;;;;;5039031;28;20224;-50
2022/07/09 05:40:35;;;;;;;5.07;2.95;;;;;;;;;;5036964;28;20238;-51
2022/07/09 05:43:02;;;;;;;7.47;2.70;;;;;;;;;;5035809;28;20283;-51
2022/07/09 05:45:28;;;;;;;3.20;2.85;;;;;;;;;;5032544;28;20236;-50
2022/07/09 05:47:54;;;;;;;3.45;2.53;;;;;;;;;;5018256;28;20238;-51
2022/07/09 05:50:21;;;;;;;4.10;3.08;;;;;;;;;;5024055;28;20232;-51
2022/07/09 05:52:47;;;;;;;3.85;2.55;;;;;;;;;;5032831;28;20800;-52
2022/07/09 05:55:15;;;;;;;5.63;3.05;;;;;;;;;;5038579;28;20604;-52
2022/07/09 05:57:41;;;;;;;3.75;2.65;;;;;;;;;;5041262;28;20812;-51
2022/07/09 06:00:08;;;;;;;3.47;2.22;;;;;;;;;;5033579;28;20227;-52
2022/07/09 06:02:35;;;;;;;3.17;2.88;;;;;;;;;;5042943;28;20224;-51
2022/07/09 06:05:01;;;;;;;4.72;2.53;;;;;;;;;;5042472;28;20717;-52
2022/07/09 06:07:27;;;;;;;3.30;2.80;;;;;;;;;;5039701;28;20319;-53
2022/07/09 06:09:54;;;;;;;5.30;2.60;;;;;;;;;;5035306;28;20238;-51
2022/07/09 06:12:22;;;;;;;4.32;2.80;;;;;;;;;;5043971;28;20247;-50
2022/07/09 06:14:48;;;;;;;5.03;2.70;;;;;;;;;;5024673;28;20235;-51
2022/07/09 06:17:14;;;;;;;4.50;3.17;;;;;;;;;;5036020;28;20251;-51
2022/07/09 06:19:41;;;;;;;4.07;3.20;;;;;;;;;;5030878;28;20247;-52
2022/07/09 06:22:07;;;;;;;4.65;3.00;;;;;;;;;;5014600;28;20270;-52
2022/07/09 06:24:33;;;;;;;3.55;2.63;;;;;;;;;;5019153;28;20233;-52
2022/07/09 06:27:00;;;;;;;2.03;1.85;;;;;;;;;;5029171;28;20330;-52
2022/07/09 06:29:27;;;;;;;4.30;3.05;;;;;;;;;;5035161;28;20235;-52
2022/07/09 06:31:57;;;;;;;3.45;2.63;;;;;;;;;;5026347;28;20607;-51
2022/07/09 06:34:24;;;;;;;4.55;3.00;;;;;;;;;;5027932;28;20237;-53
2022/07/09 06:36:50;;;;;;;5.15;2.78;;;;;;;;;;5027870;28;20243;-51
2022/07/09 06:42:03;;;;;;;4.45;3.08;;;;;;;;;;5025907;28;20224;-52
2022/07/09 06:44:31;;;;;;;5.53;2.72;;;;;;;;;;5013330;28;20241;-53
2022/07/09 06:46:57;;;;;;;3.55;2.22;;;;;;;;;;5023736;28;20228;-51
2022/07/09 06:49:24;;;;;;;4.00;2.83;;;;;;;;;;5025078;28;20236;-52
2022/07/09 06:51:50;;;;;;;6.35;2.67;;;;;;;;;;5027168;28;20706;-52
2022/07/09 06:54:16;;;;;;;6.88;2.47;;;;;;;;;;5028854;28;20306;-51
2022/07/09 06:56:43;;;;;;;4.95;2.97;;;;;;;;;;5023343;28;22397;-51
2022/07/09 06:59:09;;;;;;;3.17;2.42;;;;;;;;;;5026345;28;20314;-52
2022/07/09 07:01:37;;;;;;;5.85;2.80;;;;;;;;;;5015714;28;20233;-52
2022/07/09 07:04:03;;;;;;;3.30;2.50;;;;;;;;;;5019473;28;20236;-51
2022/07/09 07:06:29;;;;;;;4.45;2.45;;;;;;;;;;5022831;28;20308;-53
2022/07/09 07:08:56;;;;;;;3.80;2.55;;;;;;;;;;5024909;28;20245;-52
2022/07/09 07:11:22;;;;;;;2.38;2.17;;;;;;;;;;5031813;28;20228;-52
2022/07/09 07:13:48;;;;;;;5.00;2.58;;;;;;;;;;5045472;28;20238;-53
2022/07/09 07:16:15;;;;;;;4.05;2.60;;;;;;;;;;5039885;28;20577;-52
2022/07/09 07:18:43;;;;;;;2.95;2.38;;;;;;;;;;5042331;28;20752;-52
2022/07/09 07:21:09;;;;;;;6.80;2.85;;;;;;;;;;5031730;28;20228;-53
2022/07/09 07:23:35;;;;;;;5.38;2.60;;;;;;;;;;5035677;28;20234;-51
2022/07/09 07:26:02;;;;;;;3.35;2.15;;;;;;;;;;5032467;28;20233;-52
2022/07/09 07:28:28;;;;;;;3.53;2.78;;;;;;;;;;5020684;28;20239;-52
2022/07/09 07:30:55;;;;;;;4.95;2.15;;;;;;;;;;5025884;28;20241;-51
2022/07/09 07:33:21;;;;;;;3.97;2.40;;;;;;;;;;5040679;28;20620;-50
2022/07/09 07:35:49;;;;;;;3.47;2.15;;;;;;;;;;5035920;28;20237;-52
2022/07/09 07:38:15;;;;;;;4.82;2.72;;;;;;;;;;5030729;28;20232;-52
2022/07/09 07:40:42;;;;;;;4.63;2.75;;;;;;;;;;5033662;28;20232;-53
2022/07/09 07:43:10;;;;;;;5.43;2.85;;;;;;;;;;5041588;28;20744;-51
2022/07/09 07:45:36;;;;;;;4.68;2.70;;;;;;;;;;5029248;28;20236;-53
2022/07/09 07:48:05;;;;;;;3.15;2.22;;;;;;;;;;5040572;28;20597;-53
2022/07/09 07:50:32;;;;;;;3.67;2.53;;;;;;;;;;5044526;28;20777;-51
2022/07/09 07:53:00;;;;;;;4.97;2.50;;;;;;;;;;5042340;28;20232;-52
2022/07/09 07:55:26;;;;;;;3.03;2.03;;;;;;;;;;5046730;28;20235;-52
2022/07/09 07:57:52;;;;;;;4.65;3.22;;;;;;;;;;5044833;28;20322;-51
2022/07/09 08:00:19;;;;;;;3.78;2.60;;;;;;;;;;5044559;28;20235;-52
2022/07/09 08:02:45;;;;;;;5.68;2.38;;;;;;;;;;5045364;28;20239;-52
2022/07/09 08:05:12;;;;;;;6.00;2.35;;;;;;;;;;5040050;28;20239;-52
2022/07/09 08:07:38;;;;;;;3.47;2.17;;;;;;;;;;5035024;28;20248;-51
2022/07/09 08:10:07;;;;;;;7.00;2.67;;;;;;;;;;5039606;28;20447;-52
2022/07/09 08:12:33;;;;;;;4.25;2.70;;;;;;;;;;5020852;28;20255;-52
2022/07/09 08:14:59;;;;;;;5.70;2.53;;;;;;;;;;5025553;28;20235;-52
2022/07/09 08:17:26;;;;;;;6.65;2.42;;;;;;;;;;5037647;28;20236;-51
2022/07/09 08:19:52;;;;;;;3.20;2.80;;;;;;;;;;5042533;28;20363;-52
2022/07/09 08:22:18;;;;;;;3.70;2.63;;;;;;;;;;5040174;28;20714;-53
2022/07/09 08:24:45;;;;;;;5.15;2.65;;;;;;;;;;5040084;28;20239;-52
2022/07/09 08:27:12;;;;;;;3.70;3.30;;;;;;;;;;5039244;28;20263;-52
2022/07/09 08:29:39;;;;;;;3.30;2.20;;;;;;;;;;5042402;28;20232;-54
2022/07/09 08:32:06;;;;;;;3.75;2.25;;;;;;;;;;5042527;28;20220;-52
2022/07/09 08:34:32;;;;;;;4.43;2.45;;;;;;;;;;5033658;28;20240;-53
2022/07/09 08:36:58;;;;;;;6.03;3.00;;;;;;;;;;5040702;28;20242;-53
2022/07/09 08:39:25;;;;;;;5.57;2.42;;;;;;;;;;5035274;28;20236;-52
2022/07/09 08:41:51;;;;;;;3.05;2.75;;;;;;;;;;5023888;28;20228;-51
2022/07/09 08:44:20;;;;;;;2.83;2.20;;;;;;;;;;5039168;28;20232;-52
2022/07/09 08:46:47;;;;;;;4.93;2.70;;;;;;;;;;5032221;28;20423;-51
2022/07/09 08:49:14;;;;;;;6.40;5.80;;;;;;;;;;5023847;28;20319;-52
2022/07/09 08:51:42;;;;;;;3.60;3.30;;;;;;;;;;5021636;28;20241;-52
2022/07/09 08:54:09;;;;;;;4.82;2.83;;;;;;;;;;5017062;28;20236;-51
2022/07/09 08:56:36;;;;;;;3.22;2.47;;;;;;;;;;5022792;28;20971;-51
2022/07/09 08:59:03;;;;;;;4.55;2.83;;;;;;;;;;5018727;28;20784;-51
2022/07/09 09:01:30;;;;;;;2.58;2.13;;;;;;;;;;5022323;28;20233;-52
2022/07/09 09:03:57;;;;;;;2.90;2.30;;;;;;;;;;5034314;28;20607;-51
2022/07/09 09:06:23;;;;;;;4.05;2.50;;;;;;;;;;5028492;28;20601;-51
2022/07/09 09:08:53;;;;;;;3.65;2.22;;;;;;;;;;5025636;28;20286;-52
2022/07/09 09:11:22;;;;;;;5.73;2.73;;;;;;;;;;5028945;28;20429;-51
2022/07/09 09:13:49;;;;;;;3.53;2.87;;;;;;;;;;5035458;28;20412;-52
2022/07/09 09:16:16;;;;;;;2.33;2.05;;;;;;;;;;5026249;28;20236;-51
2022/07/09 09:18:45;;;;;;;7.18;2.50;;;;;;;;;;5039219;28;20228;-52
2022/07/09 09:21:12;;;;;;;5.35;2.80;;;;;;;;;;5034160;28;20234;-51
2022/07/09 09:23:42;;;;;;;4.18;2.83;;;;;;;;;;5047616;28;20574;-52
2022/07/09 09:26:12;;;;;;;3.50;2.90;;;;;;;;;;5040304;28;20224;-51
2022/07/09 09:28:46;;;;;;;3.20;2.72;;;;;;;;;;5036573;28;20520;-51
2022/07/09 09:31:18;;;;;;;4.05;3.15;;;;;;;;;;5042582;28;20232;-52
2022/07/09 09:33:46;;;;;;;4.03;2.67;;;;;;;;;;5035605;28;20244;-52
2022/07/09 09:36:12;;;;;;;2.63;2.38;;;;;;;;;;5034339;28;20243;-52
2022/07/09 09:38:38;;;;;;;7.78;2.95;;;;;;;;;;5031881;28;20245;-51
2022/07/09 09:41:05;;;;;;;2.67;2.47;;;;;;;;;;5037594;28;20220;-53
2022/07/09 09:43:32;;;;;;;4.57;3.40;;;;;;;;;;5032443;28;20243;-52
2022/07/09 09:45:59;;;;;;;4.82;3.20;;;;;;;;;;5043830;28;20231;-53
2022/07/09 09:48:25;;;;;;;6.53;3.47;;;;;;;;;;5034939;28;20236;-53
2022/07/09 09:50:56;;;;;;;6.00;4.68;;;;;;;;;;5041820;28;20229;-53
2022/07/09 09:53:22;;;;;;;7.07;4.20;;;;;;;;;;5031826;28;20236;-51
2022/07/09 09:55:49;;;;;;;6.18;3.40;;;;;;;;;;5041678;28;20227;-52
2022/07/09 09:58:15;;;;;;;5.57;4.18;;;;;;;;;;5044569;28;20228;-53
2022/07/09 10:00:42;;;;;;;7.65;4.03;;;;;;;;;;5036800;28;20239;-53
2022/07/09 10:03:10;;;;;;;6.15;4.07;;;;;;;;;;5028575;28;20240;-53
2022/07/09 10:05:36;;;;;;;8.43;4.80;;;;;;;;;;5027377;28;20439;-51
2022/07/09 10:08:04;;;;;;;3.97;3.53;;;;;;;;;;5027401;28;20232;-52
2022/07/09 10:10:31;;;;;;;4.72;3.78;;;;;;;;;;5032382;28;20228;-51
2022/07/09 10:12:57;;;;;;;6.45;3.22;;;;;;;;;;5048540;28;20232;-51
2022/07/09 10:15:26;;;;;;;4.30;3.78;;;;;;;;;;5033376;28;20312;-51
2022/07/09 10:17:52;;;;;;;5.03;3.47;;;;;;;;;;5036965;28;20240;-52
2022/07/09 10:20:30;;;;;;;7.30;3.65;;;;;;;;;;5051617;28;20236;-51
2022/07/09 10:22:57;;;;;;;5.38;3.03;;;;;;;;;;5048058;28;20963;-52
2022/07/09 10:25:29;;;;;;;5.03;3.80;;;;;;;;;;5043136;28;20231;-52
2022/07/09 10:27:56;;;;;;;4.05;3.20;;;;;;;;;;5047683;28;20242;-52
2022/07/09 10:30:23;;;;;;;7.00;3.33;;;;;;;;;;5047494;28;20235;-53
2022/07/09 10:33:01;;;;;;;9.80;3.10;;;;;;;;;;5046893;28;20227;-53
2022/07/09 10:35:28;;;;;;;4.65;2.83;;;;;;;;;;5047550;28;20238;-52
2022/07/09 10:37:54;;;;;;;5.43;2.95;;;;;;;;;;5047709;28;20241;-53
2022/07/09 10:40:22;;;;;;;4.88;2.92;;;;;;;;;;5044180;28;20242;-52
2022/07/09 10:43:00;;;;;;;5.18;2.35;;;;;;;;;;5035707;28;20649;-52
2022/07/09 10:45:28;;;;;;;5.18;2.80;;;;;;;;;;5046996;28;20310;-51
2022/07/09 10:47:55;;;;;;;3.00;1.85;;;;;;;;;;5048292;28;20418;-52
2022/07/09 10:50:21;;;;;;;4.25;2.60;;;;;;;;;;5046224;28;20234;-52
2022/07/09 10:52:48;;;;;;;2.70;2.45;;;;;;;;;;5047302;28;20235;-52
2022/07/09 10:55:16;;;;;;;4.50;2.40;;;;;;;;;;5043203;28;20232;-51
2022/07/09 10:57:42;;;;;;;3.45;2.42;;;;;;;;;;5035015;28;20240;-52
2022/07/09 11:00:14;;;;;;;3.13;2.10;;;;;;;;;;5045160;28;20228;-52
2022/07/09 11:02:51;;;;;;;2.65;1.90;;;;;;;;;;5047021;28;20240;-52
2022/07/09 11:05:17;;;;;;;4.47;2.55;;;;;;;;;;5041491;28;20739;-53
2022/07/09 11:07:43;;;;;;;3.33;2.63;;;;;;;;;;5037024;28;20246;-52
2022/07/09 11:10:19;;;;;;;2.92;1.80;;;;;;;;;;5027692;28;20260;-51
2022/07/09 11:12:48;;;;;;;2.85;2.22;;;;;;;;;;5045533;28;20235;-52
2022/07/09 11:15:18;;;;;;;2.58;1.85;;;;;;;;;;5036066;28;20237;-52
2022/07/09 11:17:45;;;;;;;3.53;1.85;;;;;;;;;;5027838;28;20243;-52
2022/07/09 11:20:11;;;;;;;3.20;1.98;;;;;;;;;;5030878;28;20753;-53
2022/07/09 11:22:38;;;;;;;1.60;1.50;;;;;;;;;;5040788;28;20247;-53
2022/07/09 11:25:04;;;;;;;2.55;1.60;;;;;;;;;;5046509;28;20236;-53
2022/07/09 11:27:31;;;;;;;3.60;1.80;;;;;;;;;;5048835;28;20239;-53
2022/07/09 11:30:01;;;;;;;3.33;2.20;;;;;;;;;;5049083;28;20227;-51
2022/07/09 11:32:30;;;;;;;3.40;1.77;;;;;;;;;;5046238;28;20232;-52
2022/07/09 11:34:59;;;;;;;1.27;1.17;;;;;;;;;;5046923;28;20323;-53
2022/07/09 11:37:25;;;;;;;1.63;1.23;;;;;;;;;;5026949;28;20233;-53
2022/07/09 11:39:52;;;;;;;2.05;1.63;;;;;;;;;;5041746;28;20271;-53
2022/07/09 11:42:19;;;;;;;2.25;1.77;;;;;;;;;;5047157;28;20231;-52
2022/07/09 11:44:54;;;;;;;1.73;1.35;;;;;;;;;;5046437;28;20712;-52
2022/07/09 11:47:22;;;;;;;2.30;2.10;;;;;;;;;;5046891;28;20246;-52
2022/07/09 11:49:50;;;;;;;1.58;1.42;;;;;;;;;;5045757;28;20231;-52
2022/07/09 11:52:18;;;;;;;2.05;1.55;;;;;;;;;;5045790;28;20267;-53
2022/07/09 11:54:57;;;;;;;1.92;1.58;;;;;;;;;;5040239;28;20310;-52
2022/07/09 11:57:24;;;;;;;1.63;1.50;;;;;;;;;;5034497;28;20231;-53
2022/07/09 11:59:50;;;;;;;1.98;1.83;;;;;;;;;;5043231;28;20250;-51
2022/07/09 12:02:26;;;;;;;1.70;1.60;;;;;;;;;;5025902;28;20244;-52
2022/07/09 12:04:54;;;;;;;4.32;1.88;;;;;;;;;;5046259;28;21227;-53
2022/07/09 12:07:21;;;;;;;1.73;1.63;;;;;;;;;;5046266;28;20242;-51
2022/07/09 12:09:47;;;;;;;2.60;1.25;;;;;;;;;;5040176;28;20263;-52
2022/07/09 12:12:13;;;;;;;1.85;1.58;;;;;;;;;;5037524;28;20319;-52
2022/07/09 12:14:40;;;;;;;1.67;1.38;;;;;;;;;;5044442;28;20232;-54
2022/07/09 12:17:06;;;;;;;1.77;1.67;;;;;;;;;;5042263;28;20227;-51
2022/07/09 12:19:32;;;;;;;2.10;1.70;;;;;;;;;;5036756;28;20239;-52
2022/07/09 12:22:00;;;;;;;1.45;1.35;;;;;;;;;;5050220;28;20314;-52
2022/07/09 12:24:26;;;;;;;1.73;1.33;;;;;;;;;;5043211;28;20247;-53
2022/07/09 12:26:53;;;;;;;2.15;1.52;;;;;;;;;;5043862;28;20243;-53
2022/07/09 12:29:19;;;;;;;1.77;1.35;;;;;;;;;;5035765;28;20686;-52
2022/07/09 12:31:45;;;;;;;1.45;1.35;;;;;;;;;;5030891;28;20239;-54
2022/07/09 12:34:12;;;;;;;6.65;1.65;;;;;;;;;;5035526;28;20832;-52
2022/07/09 12:36:39;;;;;;;4.30;2.03;;;;;;;;;;5052362;28;20235;-56
2022/07/09 12:39:06;;;;;;;4.90;2.60;;;;;;;;;;5040502;28;20282;-55
2022/07/09 12:41:32;;;;;;;5.85;2.45;;;;;;;;;;5028687;28;20239;-54
2022/07/09 12:43:59;;;;;;;6.68;2.42;;;;;;;;;;5006303;28;20241;-53
2022/07/09 12:46:25;;;;;;;2.47;2.20;;;;;;;;;;5018160;28;20247;-53
2022/07/09 12:48:51;;;;;;;5.65;2.78;;;;;;;;;;5025400;28;20240;-53
2022/07/09 12:51:18;;;;;;;3.35;2.28;;;;;;;;;;5025870;28;20244;-54
2022/07/09 12:53:44;;;;;;;3.45;3.15;;;;;;;;;;5026290;28;20244;-54
2022/07/09 12:56:12;;;;;;;3.30;2.97;;;;;;;;;;5037685;28;20234;-53
2022/07/09 12:58:38;;;;;;;3.85;2.83;;;;;;;;;;5035091;28;20630;-54
2022/07/09 13:01:06;;;;;;;5.40;3.55;;;;;;;;;;5033778;28;20267;-54
2022/07/09 13:03:32;;;;;;;3.90;3.60;;;;;;;;;;5045958;28;20587;-55
2022/07/09 13:05:58;;;;;;;4.15;3.30;;;;;;;;;;5046079;28;20666;-55
2022/07/09 13:08:25;;;;;;;3.33;3.03;;;;;;;;;;5045528;28;20327;-56
2022/07/09 13:10:51;;;;;;;3.85;3.55;;;;;;;;;;5045128;28;20235;-53
2022/07/09 13:13:19;;;;;;;5.28;3.67;;;;;;;;;;5039763;28;20249;-56
2022/07/09 13:15:48;;;;;;;4.05;3.67;;;;;;;;;;5024103;28;20707;-57
2022/07/09 13:18:16;;;;;;;5.25;3.72;;;;;;;;;;5025223;28;20233;-56
2022/07/09 13:20:42;;;;;;;3.90;3.22;;;;;;;;;;5036162;28;20298;-58
2022/07/09 13:23:08;;;;;;;3.03;2.83;;;;;;;;;;5025677;28;20232;-58
2022/07/09 13:25:35;;;;;;;2.55;2.40;;;;;;;;;;5025274;28;20237;-58
2022/07/09 13:28:01;;;;;;;2.67;2.35;;;;;;;;;;5029079;28;20658;-58
2022/07/09 13:30:29;;;;;;;2.92;2.35;;;;;;;;;;5030831;28;20236;-58
2022/07/09 13:32:55;;;;;;;2.00;1.90;;;;;;;;;;5018359;28;20232;-57
2022/07/09 13:35:24;;;;;;;2.88;2.50;;;;;;;;;;5019076;28;20232;-57
2022/07/09 13:37:50;;;;;;;2.20;1.95;;;;;;;;;;5043690;28;20240;-56
2022/07/09 13:40:16;;;;;;;2.30;2.10;;;;;;;;;;5044582;28;20242;-56
2022/07/09 13:42:44;;;;;;;2.00;1.90;;;;;;;;;;5027555;28;20236;-55
2022/07/09 13:45:10;;;;;;;2.38;1.80;;;;;;;;;;5025118;28;20236;-57
2022/07/09 13:47:38;;;;;;;2.90;2.15;;;;;;;;;;5022581;28;20552;-55
2022/07/09 13:50:05;;;;;;;2.50;1.58;;;;;;;;;;5024900;28;20236;-54
2022/07/09 13:52:31;;;;;;;1.92;1.83;;;;;;;;;;5038635;28;20254;-54
2022/07/09 13:54:57;;;;;;;2.05;1.95;;;;;;;;;;5045053;28;20243;-56
2022/07/09 13:57:24;;;;;;;2.08;1.88;;;;;;;;;;5038114;28;20232;-55
2022/07/09 13:59:50;;;;;;;4.30;2.60;;;;;;;;;;5044895;28;20456;-56
2022/07/09 14:02:16;;;;;;;2.38;2.17;;;;;;;;;;5033419;28;20232;-53
2022/07/09 14:04:45;;;;;;;2.38;2.20;;;;;;;;;;5022178;28;20238;-53
2022/07/09 14:07:11;;;;;;;3.15;2.42;;;;;;;;;;5018475;28;20490;-54
2022/07/09 14:09:38;;;;;;;2.13;1.98;;;;;;;;;;5031243;28;20718;-54
2022/07/09 14:12:04;;;;;;;2.50;2.30;;;;;;;;;;5045225;28;20261;-53
2022/07/09 14:14:32;;;;;;;2.20;2.10;;;;;;;;;;5032763;28;20259;-54
2022/07/09 14:17:00;;;;;;;2.95;2.38;;;;;;;;;;5033888;28;20238;-54
2022/07/09 14:19:26;;;;;;;2.53;2.33;;;;;;;;;;5046968;28;20256;-53
2022/07/09 14:21:54;;;;;;;2.90;2.20;;;;;;;;;;5041067;28;20607;-53
2022/07/09 14:24:20;;;;;;;2.80;2.47;;;;;;;;;;5026866;28;20343;-52
2022/07/09 14:26:47;;;;;;;2.28;2.10;;;;;;;;;;5032911;28;20243;-52
2022/07/09 14:29:14;;;;;;;1.50;1.40;;;;;;;;;;5038582;28;20236;-54
2022/07/09 14:31:40;;;;;;;3.28;1.30;;;;;;;;;;5043686;28;20244;-53
2022/07/09 14:34:07;;;;;;;2.05;1.88;;;;;;;;;;5046381;28;20453;-52
2022/07/09 14:36:33;;;;;;;1.67;1.58;;;;;;;;;;5045888;28;20236;-56
2022/07/09 14:39:02;;;;;;;1.35;1.25;;;;;;;;;;5037445;28;20234;-53
2022/07/09 14:41:28;;;;;;;3.42;1.95;;;;;;;;;;5031454;28;20232;-53
2022/07/09 14:43:54;;;;;;;3.00;1.30;;;;;;;;;;5025125;28;20320;-53